Time;durP1;ratioP1;P1;durP2;ratioP2;P2;SDS_P1;SDS_P2;PMS_P1;PMS_P2;Temp;Humidity;BMP_temperature;BMP_pressure;BME280_temperature;BME280_humidity;BME280_pressure;Samples;Min_cycle;Max_cycle;Signal;HPM_P1;HPM_P2
2022/12/13 00:00:33;;;;;;;6.77;3.87;;;;;;;-3.11;100.00;99848.75;5025539;28;20445;-55
2022/12/13 00:02:59;;;;;;;2.17;1.97;;;;;;;-3.21;100.00;99854.63;5025264;28;20522;-55
2022/12/13 00:05:25;;;;;;;8.77;3.00;;;;;;;-3.38;100.00;99855.19;5025643;28;20452;-54
2022/12/13 00:07:52;;;;;;;2.20;1.70;;;;;;;-3.44;100.00;99844.66;5025377;28;20455;-55
2022/12/13 00:10:18;;;;;;;1.70;1.60;;;;;;;-3.46;100.00;99848.94;5018960;28;20455;-54
2022/12/13 00:12:45;;;;;;;6.63;1.43;;;;;;;-3.50;100.00;99841.06;5018895;28;20871;-55
2022/12/13 00:15:11;;;;;;;0.40;0.40;;;;;;;-3.52;100.00;99843.63;5019073;28;20451;-55
2022/12/13 00:17:38;;;;;;;7.07;5.20;;;;;;;-3.43;100.00;99836.00;5018726;28;20499;-56
2022/12/13 00:20:05;;;;;;;3.97;2.90;;;;;;;-3.21;100.00;99834.72;5025092;28;20484;-55
2022/12/13 00:22:31;;;;;;;5.47;4.10;;;;;;;-3.30;100.00;99835.41;5025314;28;20497;-54
2022/12/13 00:24:58;;;;;;;10.87;4.53;;;;;;;-3.21;100.00;99829.50;5019141;28;20461;-55
2022/12/13 00:27:24;;;;;;;0.60;0.60;;;;;;;-2.99;100.00;99826.47;5018764;28;20834;-55
2022/12/13 00:29:51;;;;;;;3.90;3.80;;;;;;;-2.70;100.00;99820.91;5024841;28;20480;-54
2022/12/13 00:32:17;;;;;;;2.60;2.43;;;;;;;-2.65;100.00;99811.44;5025125;28;20483;-55
2022/12/13 00:34:43;;;;;;;2.20;2.10;;;;;;;-2.64;100.00;99815.78;5024724;28;20452;-55
2022/12/13 00:37:10;;;;;;;8.53;2.97;;;;;;;-2.46;100.00;99815.25;5025156;28;20467;-55
2022/12/13 00:39:37;;;;;;;6.73;2.00;;;;;;;-2.58;100.00;99822.84;5018466;28;20840;-55
2022/12/13 00:42:04;;;;;;;2.87;2.63;;;;;;;-2.77;100.00;99816.44;5018162;28;20471;-55
2022/12/13 00:44:31;;;;;;;8.63;1.43;;;;;;;-2.84;100.00;99810.28;5028488;28;20554;-55
2022/12/13 00:46:57;;;;;;;0.50;0.50;;;;;;;-2.87;100.00;99805.03;5044664;28;20443;-55
2022/12/13 00:49:24;;;;;;;3.03;2.10;;;;;;;-2.85;100.00;99800.72;5005939;28;20473;-55
2022/12/13 00:51:50;;;;;;;6.03;2.03;;;;;;;-2.99;100.00;99800.47;5018191;28;20492;-55
2022/12/13 00:54:17;;;;;;;1.07;1.07;;;;;;;-3.03;100.00;99808.19;5023343;28;20459;-55
2022/12/13 00:56:43;;;;;;;3.07;2.87;;;;;;;-2.84;100.00;99806.78;5025100;28;20463;-55
2022/12/13 00:59:13;;;;;;;1.27;1.20;;;;;;;-2.89;100.00;99798.03;5019397;28;20475;-54
2022/12/13 01:01:39;;;;;;;36.90;4.23;;;;;;;-2.67;100.00;99802.75;5017778;28;20499;-55
2022/12/13 01:04:06;;;;;;;3.50;1.07;;;;;;;-2.64;100.00;99791.50;5031230;28;20455;-55
2022/12/13 01:06:39;;;;;;;2.10;2.10;;;;;;;-2.56;100.00;99796.00;5017969;28;20452;-54
2022/12/13 01:09:13;;;;;;;2.77;1.47;;;;;;;-2.66;100.00;99796.69;5021894;28;20512;-55
2022/12/13 01:11:39;;;;;;;2.57;2.13;;;;;;;-2.49;100.00;99802.16;5024483;28;20500;-54
2022/12/13 01:14:06;;;;;;;9.97;2.10;;;;;;;-2.44;100.00;99803.13;5021308;28;20451;-56
2022/12/13 01:16:32;;;;;;;3.37;3.27;;;;;;;-2.55;100.00;99808.16;5017683;28;20462;-55
2022/12/13 01:18:59;;;;;;;1.47;1.37;;;;;;;-2.57;100.00;99819.38;5002667;28;20472;-54
2022/12/13 01:21:25;;;;;;;5.03;3.20;;;;;;;-2.70;100.00;99811.38;5024362;28;20452;-54
2022/12/13 01:23:52;;;;;;;2.33;1.10;;;;;;;-2.76;100.00;99811.25;5021632;28;20448;-55
2022/12/13 01:26:20;;;;;;;1.33;0.60;;;;;;;-3.01;100.00;99817.78;5017624;28;20455;-54
2022/12/13 01:28:47;;;;;;;2.87;1.77;;;;;;;-2.98;100.00;99811.75;5019286;28;20483;-54
2022/12/13 01:31:16;;;;;;;4.67;1.60;;;;;;;-3.08;100.00;99815.03;5023867;28;20461;-54
2022/12/13 01:33:43;;;;;;;5.97;3.30;;;;;;;-3.29;100.00;99805.09;5023293;28;20452;-55
2022/12/13 01:36:13;;;;;;;3.50;3.10;;;;;;;-3.16;100.00;99801.88;5016989;28;20827;-54
2022/12/13 01:38:40;;;;;;;1.43;1.37;;;;;;;-3.15;100.00;99801.06;5017978;28;20908;-55
2022/12/13 01:41:06;;;;;;;0.40;0.40;;;;;;;-3.24;100.00;99803.47;5023823;28;20452;-55
2022/12/13 01:43:43;;;;;;;5.93;1.73;;;;;;;-3.50;100.00;99804.69;5024144;28;20452;-55
2022/12/13 01:46:10;;;;;;;2.33;2.17;;;;;;;-3.54;100.00;99803.78;5036383;28;20446;-55
2022/12/13 01:48:43;;;;;;;2.87;1.50;;;;;;;-3.46;100.00;99798.72;5033959;28;20514;-55
2022/12/13 01:51:14;;;;;;;2.00;1.90;;;;;;;-3.58;100.00;99795.03;5016355;28;20449;-55
2022/12/13 01:53:42;;;;;;;5.03;3.23;;;;;;;-3.53;100.00;99794.25;5023511;28;20456;-54
2022/12/13 01:56:14;;;;;;;2.67;2.30;;;;;;;-3.61;100.00;99796.69;5020602;28;20455;-55
2022/12/13 01:58:40;;;;;;;1.23;0.77;;;;;;;-3.44;100.00;99795.28;5016733;28;20472;-55
2022/12/13 02:01:07;;;;;;;2.73;2.60;;;;;;;-3.24;100.00;99790.50;5019688;28;20825;-54
2022/12/13 02:03:34;;;;;;;0.93;0.93;;;;;;;-3.11;100.00;99796.78;5026462;28;20877;-54
2022/12/13 02:06:06;;;;;;;6.30;1.97;;;;;;;-3.08;100.00;99795.09;5018930;28;20464;-54
2022/12/13 02:08:33;;;;;;;1.37;1.27;;;;;;;-3.03;100.00;99789.97;5023244;28;20475;-55
2022/12/13 02:11:03;;;;;;;1.27;0.80;;;;;;;-3.05;100.00;99791.69;5022790;28;20452;-54
2022/12/13 02:13:29;;;;;;;1.60;1.43;;;;;;;-2.92;100.00;99795.38;5016552;28;20499;-55
2022/12/13 02:16:21;;;;;;;1.40;1.40;;;;;;;-3.00;100.00;99800.47;5017430;28;20515;-55
2022/12/13 02:19:34;;;;;;;2.57;1.43;;;;;;;-3.21;100.00;99795.72;5019233;28;20472;-55
2022/12/13 02:22:39;;;;;;;2.00;1.90;;;;;;;-3.03;100.00;99802.97;5020566;28;20985;-55
2022/12/13 02:25:24;;;;;;;1.97;1.70;;;;;;;-3.05;100.00;99795.16;4948957;29;20455;-55
2022/12/13 02:28:04;;;;;;;1.80;1.70;;;;;;;-3.19;100.00;99793.16;4948981;29;20965;-54
2022/12/13 02:30:57;;;;;;;1.63;1.53;;;;;;;-3.37;100.00;99797.16;5002856;28;20543;-55
2022/12/13 02:33:34;;;;;;;0.37;0.37;;;;;;;-3.49;100.00;99799.53;5029295;28;20630;-54
2022/12/13 02:36:10;;;;;;;0.90;0.90;;;;;;;-3.30;100.00;99798.16;5016699;28;20451;-54
2022/12/13 02:39:08;;;;;;;3.27;2.00;;;;;;;-3.35;100.00;99795.47;5016821;28;20497;-55
2022/12/13 02:41:43;;;;;;;3.10;2.80;;;;;;;-3.59;100.00;99789.78;5020717;28;20463;-55
2022/12/13 02:44:24;;;;;;;2.23;1.63;;;;;;;-3.37;100.00;99786.78;5016258;28;20447;-56
2022/12/13 02:46:55;;;;;;;1.37;1.30;;;;;;;-3.35;100.00;99774.69;5029238;28;20527;-55
2022/12/13 02:49:24;;;;;;;1.57;1.33;;;;;;;-3.75;100.00;99785.16;5017186;28;20476;-54
2022/12/13 02:51:51;;;;;;;1.07;1.07;;;;;;;-3.61;100.00;99773.31;5022491;28;20488;-54
2022/12/13 02:54:18;;;;;;;9.20;1.90;;;;;;;-3.73;100.00;99776.53;5017885;28;20452;-53
2022/12/13 02:56:55;;;;;;;5.43;3.43;;;;;;;-3.75;100.00;99779.97;5016563;28;20456;-55
2022/12/13 02:59:29;;;;;;;6.60;1.17;;;;;;;-3.79;100.00;99770.38;5020881;28;20479;-54
2022/12/13 03:02:33;;;;;;;1.23;1.23;;;;;;;-3.71;100.00;99771.38;5024073;28;20461;-55
2022/12/13 03:08:20;;;;;;;1.97;1.93;;;;;;;-3.67;100.00;99770.63;5023342;28;20452;-54
2022/12/13 03:11:07;;;;;;;10.27;2.83;;;;;;;-3.68;100.00;99774.94;5019719;28;20535;-55
2022/12/13 03:13:43;;;;;;;23.23;1.80;;;;;;;-3.70;100.00;99770.53;5016535;28;20493;-54
2022/12/13 03:16:18;;;;;;;4.90;4.50;;;;;;;-3.63;100.00;99772.41;5016176;28;20483;-55
2022/12/13 03:18:51;;;;;;;4.37;4.27;;;;;;;-3.72;100.00;99774.81;5020203;28;20484;-54
2022/12/13 03:21:18;;;;;;;1.10;1.00;;;;;;;-3.70;100.00;99779.22;5023449;28;20475;-54
2022/12/13 03:23:46;;;;;;;3.43;2.30;;;;;;;-3.63;100.00;99778.47;5019602;28;20502;-54
2022/12/13 03:26:17;;;;;;;1.03;1.03;;;;;;;-3.74;100.00;99777.38;4998898;28;20534;-54
2022/12/13 03:28:43;;;;;;;6.90;3.60;;;;;;;-3.78;100.00;99778.19;5019530;28;20524;-54
2022/12/13 03:31:09;;;;;;;3.47;1.03;;;;;;;-3.67;100.00;99783.59;5023044;28;20856;-54
2022/12/13 03:33:40;;;;;;;1.33;1.33;;;;;;;-3.81;100.00;99792.81;5021022;28;20495;-53
2022/12/13 03:36:08;;;;;;;1.50;1.40;;;;;;;-3.82;100.00;99785.88;5016213;28;20513;-55
2022/12/13 03:38:35;;;;;;;1.67;1.60;;;;;;;-3.77;100.00;99790.31;5018411;28;20514;-54
2022/12/13 03:41:05;;;;;;;1.27;1.27;;;;;;;-3.80;100.00;99790.25;5023171;28;20934;-55
2022/12/13 03:43:32;;;;;;;4.63;3.37;;;;;;;-3.84;100.00;99791.00;5004054;28;20478;-54
2022/12/13 03:46:00;;;;;;;4.63;2.90;;;;;;;-3.86;100.00;99787.50;5033152;28;20447;-54
2022/12/13 03:48:26;;;;;;;1.30;1.20;;;;;;;-3.81;100.00;99788.50;5035806;28;20483;-55
2022/12/13 03:50:53;;;;;;;0.50;0.50;;;;;;;-3.82;100.00;99780.69;5015330;28;20849;-53
2022/12/13 03:53:21;;;;;;;1.70;1.70;;;;;;;-3.73;100.00;99783.44;5022526;28;20507;-54
2022/12/13 03:56:00;;;;;;;0.43;0.43;;;;;;;-3.76;100.00;99780.81;5017715;28;20454;-55
2022/12/13 03:58:28;;;;;;;1.60;1.50;;;;;;;-3.76;100.00;99775.59;5015689;28;20479;-54
2022/12/13 04:01:08;;;;;;;6.83;2.00;;;;;;;-3.89;100.00;99770.16;5019951;28;20906;-55
2022/12/13 04:03:36;;;;;;;16.93;3.13;;;;;;;-3.98;100.00;99769.97;5026550;28;20452;-54
2022/12/13 04:06:04;;;;;;;13.73;4.03;;;;;;;-3.95;100.00;99776.97;5019000;28;20463;-54
2022/12/13 04:08:31;;;;;;;2.00;0.70;;;;;;;-3.98;100.00;99771.69;5022704;28;20978;-55
2022/12/13 04:10:57;;;;;;;15.73;2.93;;;;;;;-3.80;100.00;99776.41;5020852;28;21035;-55
2022/12/13 04:13:33;;;;;;;0.50;0.50;;;;;;;-3.91;100.00;99770.97;5015652;28;20498;-54
2022/12/13 04:16:02;;;;;;;10.33;2.93;;;;;;;-3.92;100.00;99771.81;5017134;28;20463;-55
2022/12/13 04:18:29;;;;;;;2.43;1.70;;;;;;;-3.92;100.00;99767.50;5022410;28;20527;-54
2022/12/13 04:20:56;;;;;;;1.30;1.30;;;;;;;-3.81;100.00;99770.34;5022419;28;20531;-54
2022/12/13 04:23:23;;;;;;;2.73;1.37;;;;;;;-3.80;100.00;99764.28;5016062;28;20447;-55
2022/12/13 04:25:50;;;;;;;1.73;1.63;;;;;;;-3.80;100.00;99773.81;5015331;28;20876;-54
2022/12/13 04:28:16;;;;;;;4.43;3.63;;;;;;;-3.67;100.00;99760.22;5023976;28;20603;-55
2022/12/13 04:30:48;;;;;;;6.33;3.07;;;;;;;-3.83;100.00;99774.63;5025684;28;20451;-55
2022/12/13 04:33:20;;;;;;;2.33;2.23;;;;;;;-3.80;100.00;99769.50;5022437;28;20582;-55
2022/12/13 04:35:47;;;;;;;1.60;1.60;;;;;;;-3.58;100.00;99771.66;5018721;28;20883;-55
2022/12/13 04:38:13;;;;;;;2.03;1.10;;;;;;;-3.50;100.00;99781.31;5022134;28;20558;-54
2022/12/13 04:40:40;;;;;;;2.60;2.07;;;;;;;-3.37;100.00;99780.72;5025397;28;20521;-55
2022/12/13 04:43:06;;;;;;;1.17;1.17;;;;;;;-3.24;100.00;99768.81;5020939;28;20454;-55
2022/12/13 04:45:33;;;;;;;7.17;2.43;;;;;;;-3.24;100.00;99777.50;5031142;28;20443;-55
2022/12/13 04:47:59;;;;;;;7.03;1.73;;;;;;;-3.13;100.00;99780.28;5041698;28;20463;-54
2022/12/13 04:50:25;;;;;;;1.53;1.43;;;;;;;-3.24;100.00;99779.22;5018269;28;20451;-55
2022/12/13 04:52:52;;;;;;;8.43;2.30;;;;;;;-3.43;100.00;99776.25;5024108;28;20495;-54
2022/12/13 04:55:18;;;;;;;3.00;2.63;;;;;;;-3.64;100.00;99779.34;5018295;28;20456;-55
2022/12/13 04:57:45;;;;;;;12.47;3.23;;;;;;;-3.37;100.00;99772.91;5022197;28;20480;-55
2022/12/13 05:00:12;;;;;;;2.83;2.73;;;;;;;-3.48;100.00;99780.50;5025317;28;20463;-55
2022/12/13 05:02:40;;;;;;;9.07;2.83;;;;;;;-3.16;100.00;99773.28;5021409;28;20456;-55
2022/12/13 05:05:10;;;;;;;4.50;2.13;;;;;;;-3.43;100.00;99776.25;5027494;28;20456;-55
2022/12/13 05:07:37;;;;;;;10.30;2.00;;;;;;;-3.61;100.00;99771.59;5021803;28;20466;-54
2022/12/13 05:10:09;;;;;;;1.90;1.80;;;;;;;-3.75;100.00;99777.34;5017752;28;20447;-55
2022/12/13 05:12:36;;;;;;;1.60;1.60;;;;;;;-3.47;100.00;99773.59;5019860;28;20499;-55
2022/12/13 05:15:03;;;;;;;4.13;1.13;;;;;;;-3.87;100.00;99771.06;5029122;28;20478;-55
2022/12/13 05:17:29;;;;;;;2.37;2.17;;;;;;;-3.91;100.00;99766.66;5019296;28;20452;-54
2022/12/13 05:19:56;;;;;;;4.27;1.40;;;;;;;-3.95;100.00;99769.19;5023946;28;20480;-54
2022/12/13 05:22:22;;;;;;;4.67;2.77;;;;;;;-3.97;100.00;99760.50;5022964;28;20455;-55
2022/12/13 05:24:49;;;;;;;18.87;2.30;;;;;;;-3.97;100.00;99755.31;5017597;28;20459;-55
2022/12/13 05:27:16;;;;;;;14.37;0.67;;;;;;;-3.86;100.00;99769.34;5019037;28;20466;-55
2022/12/13 05:29:53;;;;;;;1.23;1.23;;;;;;;-3.62;100.00;99763.78;5017710;28;20480;-55
2022/12/13 05:32:37;;;;;;;2.83;1.80;;;;;;;-3.51;100.00;99751.00;5017904;28;20921;-55
2022/12/13 05:35:11;;;;;;;6.30;2.23;;;;;;;-3.27;100.00;99756.66;5020315;28;20456;-55
2022/12/13 05:37:38;;;;;;;31.17;3.40;;;;;;;-3.25;100.00;99743.69;5023827;28;20457;-54
2022/12/13 05:40:05;;;;;;;2.63;1.93;;;;;;;-3.36;100.00;99757.34;5021624;28;20483;-54
2022/12/13 05:42:32;;;;;;;5.40;3.10;;;;;;;-3.42;100.00;99744.28;5018775;28;20822;-54
2022/12/13 05:44:58;;;;;;;5.40;2.93;;;;;;;-3.58;100.00;99737.00;5011005;28;20459;-53
2022/12/13 05:47:25;;;;;;;2.60;2.50;;;;;;;-3.57;100.00;99734.44;5043894;28;20452;-53
2022/12/13 05:49:51;;;;;;;1.37;1.27;;;;;;;-3.71;100.00;99746.28;5019112;28;20484;-53
2022/12/13 05:52:20;;;;;;;0.87;0.87;;;;;;;-3.48;100.00;99743.25;5020971;28;20455;-53
2022/12/13 05:54:46;;;;;;;2.03;1.93;;;;;;;-3.41;100.00;99747.75;5018846;28;20460;-53
2022/12/13 05:57:14;;;;;;;1.33;1.33;;;;;;;-3.45;100.00;99743.31;5024140;28;20483;-54
2022/12/13 05:59:40;;;;;;;1.47;1.10;;;;;;;-3.36;100.00;99741.75;5022262;28;20471;-53
2022/12/13 06:02:07;;;;;;;1.50;1.13;;;;;;;-3.25;100.00;99736.78;5016534;28;20835;-55
2022/12/13 06:04:33;;;;;;;0.83;0.83;;;;;;;-3.35;100.00;99746.13;5029764;28;20558;-55
2022/12/13 06:07:00;;;;;;;3.93;2.87;;;;;;;-3.18;100.00;99753.31;5016944;28;21305;-54
2022/12/13 06:09:26;;;;;;;2.17;1.40;;;;;;;-3.38;100.00;99750.38;5018110;28;20484;-55
2022/12/13 06:11:52;;;;;;;3.67;2.40;;;;;;;-3.32;100.00;99753.09;5023603;28;20453;-55
2022/12/13 06:14:26;;;;;;;7.60;2.63;;;;;;;-3.25;100.00;99761.88;5023563;28;20488;-54
2022/12/13 06:16:53;;;;;;;6.37;2.90;;;;;;;-3.28;100.00;99760.09;5016972;28;20538;-54
2022/12/13 06:19:20;;;;;;;1.20;1.20;;;;;;;-2.96;100.00;99755.47;5016776;28;20564;-54
2022/12/13 06:21:48;;;;;;;1.77;1.73;;;;;;;-3.60;100.00;99749.09;5023132;28;20466;-54
2022/12/13 06:24:17;;;;;;;3.97;1.27;;;;;;;-3.66;100.00;99757.66;5023432;28;20455;-53
2022/12/13 06:26:44;;;;;;;0.30;0.30;;;;;;;-3.68;100.00;99755.88;5017390;28;20510;-55
2022/12/13 06:29:15;;;;;;;7.00;2.77;;;;;;;-3.64;100.00;99757.69;5016630;28;20504;-54
2022/12/13 06:31:58;;;;;;;2.37;0.80;;;;;;;-3.61;100.00;99760.34;5020947;28;20453;-54
2022/12/13 06:34:29;;;;;;;3.13;2.83;;;;;;;-3.51;100.00;99756.19;5024634;28;20495;-55
2022/12/13 06:36:56;;;;;;;3.17;2.93;;;;;;;-3.46;100.00;99758.03;5020765;28;20529;-54
2022/12/13 06:39:22;;;;;;;1.27;1.17;;;;;;;-3.51;100.00;99749.28;5016238;28;20484;-55
2022/12/13 06:41:49;;;;;;;1.70;1.70;;;;;;;-3.63;100.00;99751.63;5018450;28;20460;-54
2022/12/13 06:44:15;;;;;;;0.70;0.70;;;;;;;-3.64;100.00;99749.91;5024927;28;20817;-54
2022/12/13 06:46:41;;;;;;;0.73;0.73;;;;;;;-3.74;100.00;99758.34;5042233;28;20454;-54
2022/12/13 06:49:08;;;;;;;10.93;5.23;;;;;;;-3.74;100.00;99758.34;5024561;28;20523;-54
2022/12/13 06:51:34;;;;;;;1.67;1.63;;;;;;;-3.73;100.00;99765.28;5014668;28;20510;-55
2022/12/13 06:54:01;;;;;;;0.30;0.30;;;;;;;-3.90;100.00;99762.34;5022645;28;20496;-54
2022/12/13 06:56:29;;;;;;;1.10;1.03;;;;;;;-3.82;100.00;99766.00;5022038;28;20953;-54
2022/12/13 06:58:57;;;;;;;6.63;4.87;;;;;;;-4.00;100.00;99763.00;5010257;28;21016;-55
2022/12/13 07:01:27;;;;;;;7.50;1.53;;;;;;;-4.19;100.00;99780.78;5022598;28;20455;-54
2022/12/13 07:04:03;;;;;;;0.90;0.90;;;;;;;-4.15;100.00;99770.44;5024709;28;20529;-54
2022/12/13 07:06:29;;;;;;;2.97;1.73;;;;;;;-4.29;100.00;99776.22;5015608;28;20452;-54
2022/12/13 07:08:56;;;;;;;0.70;0.70;;;;;;;-4.38;100.00;99775.16;5021626;28;20476;-54
2022/12/13 07:11:28;;;;;;;1.60;1.53;;;;;;;-4.48;100.00;99779.25;5022728;28;20456;-55
2022/12/13 07:13:55;;;;;;;9.83;3.30;;;;;;;-4.24;100.00;99763.38;5018041;28;20492;-55
2022/12/13 07:16:22;;;;;;;5.10;1.03;;;;;;;-4.55;100.00;99779.94;5015881;28;20464;-54
2022/12/13 07:18:56;;;;;;;1.70;1.60;;;;;;;-4.03;100.00;99762.94;5019730;28;20472;-54
2022/12/13 07:21:28;;;;;;;9.03;2.33;;;;;;;-4.26;100.00;99760.72;5022877;28;20448;-55
2022/12/13 07:23:54;;;;;;;1.70;1.70;;;;;;;-4.28;100.00;99764.13;5020464;28;20456;-54
2022/12/13 07:26:21;;;;;;;1.83;1.33;;;;;;;-4.23;100.00;99767.72;5015638;28;20912;-54
2022/12/13 07:28:48;;;;;;;2.83;2.73;;;;;;;-4.20;100.00;99767.78;5017834;28;20505;-54
2022/12/13 07:31:20;;;;;;;2.07;2.00;;;;;;;-4.23;100.00;99780.69;5022646;28;20463;-54
2022/12/13 07:33:47;;;;;;;2.10;1.90;;;;;;;-3.98;100.00;99785.53;5022513;28;20549;-55
2022/12/13 07:36:15;;;;;;;3.73;3.23;;;;;;;-4.39;100.00;99783.75;5015616;28;20953;-54
2022/12/13 07:38:42;;;;;;;2.10;0.70;;;;;;;-4.44;100.00;99775.00;5016143;28;20484;-54
2022/12/13 07:41:10;;;;;;;34.87;2.90;;;;;;;-4.35;100.00;99789.06;5022251;28;20515;-54
2022/12/13 07:43:37;;;;;;;2.33;2.13;;;;;;;-4.27;100.00;99781.44;5004443;28;20452;-54
2022/12/13 07:46:05;;;;;;;3.37;3.17;;;;;;;-4.24;100.00;99776.34;5032984;28;20600;-54
2022/12/13 07:48:32;;;;;;;3.07;1.77;;;;;;;-4.44;100.00;99767.22;5033697;28;20510;-55
2022/12/13 07:51:05;;;;;;;5.20;1.67;;;;;;;-4.42;100.00;99770.72;5015295;28;20883;-55
2022/12/13 07:53:33;;;;;;;0.87;0.63;;;;;;;-4.30;100.00;99774.47;5021987;28;20993;-54
2022/12/13 07:56:04;;;;;;;1.17;1.07;;;;;;;-4.07;100.00;99780.16;5018154;28;20525;-54
2022/12/13 07:58:32;;;;;;;1.03;1.03;;;;;;;-3.94;100.00;99786.50;4998464;28;20525;-55
2022/12/13 08:01:00;;;;;;;3.40;2.67;;;;;;;-3.92;100.00;99785.69;5019291;28;20982;-54
2022/12/13 08:03:28;;;;;;;1.70;1.23;;;;;;;-3.95;100.00;99790.81;5012421;28;20454;-55
2022/12/13 08:06:02;;;;;;;8.30;1.20;;;;;;;-3.88;100.00;99777.09;5021415;28;20506;-54
2022/12/13 08:08:30;;;;;;;16.83;1.77;;;;;;;-3.97;100.00;99778.66;5025801;28;20825;-54
2022/12/13 08:11:08;;;;;;;5.17;1.80;;;;;;;-4.07;100.00;99771.50;5025031;28;20525;-55
2022/12/13 08:13:35;;;;;;;1.53;1.53;;;;;;;-4.01;100.00;99774.22;5024815;28;20491;-54
2022/12/13 08:16:05;;;;;;;8.03;3.20;;;;;;;-3.94;100.00;99779.59;5026232;28;20455;-55
2022/12/13 08:18:52;;;;;;;2.90;2.73;;;;;;;-3.89;100.00;99774.47;5023097;28;20905;-54
2022/12/13 08:21:32;;;;;;;7.17;1.37;;;;;;;-3.99;100.00;99781.19;5018563;28;21016;-54
2022/12/13 08:24:18;;;;;;;0.73;0.73;;;;;;;-3.83;100.00;99768.56;5018938;28;20539;-55
2022/12/13 08:26:45;;;;;;;2.97;1.50;;;;;;;-3.72;100.00;99772.22;5023074;28;20522;-55
2022/12/13 08:29:12;;;;;;;0.77;0.77;;;;;;;-3.71;100.00;99773.97;5025088;28;21037;-55
2022/12/13 08:31:48;;;;;;;0.60;0.30;;;;;;;-3.64;100.00;99778.47;5022875;28;20527;-54
2022/12/13 08:34:15;;;;;;;2.10;1.43;;;;;;;-3.56;100.00;99774.31;5031738;28;20857;-54
2022/12/13 08:36:41;;;;;;;8.03;1.47;;;;;;;-3.65;100.00;99769.78;5021395;28;20465;-55
2022/12/13 08:39:08;;;;;;;2.77;2.67;;;;;;;-3.47;100.00;99768.38;5025111;28;20542;-54
2022/12/13 08:41:34;;;;;;;2.30;2.20;;;;;;;-3.44;100.00;99774.50;5024506;28;20498;-51
2022/12/13 08:44:05;;;;;;;1.43;1.43;;;;;;;-3.42;100.00;99780.63;5027943;28;20451;-52
2022/12/13 08:46:31;;;;;;;1.33;1.33;;;;;;;-3.47;100.00;99787.44;5042220;28;21003;-52
2022/12/13 08:48:58;;;;;;;2.30;1.20;;;;;;;-3.45;100.00;99798.72;5016676;28;20480;-53
2022/12/13 08:51:24;;;;;;;3.87;3.67;;;;;;;-3.37;100.00;99804.09;5017837;28;20487;-52
2022/12/13 08:53:59;;;;;;;4.07;3.97;;;;;;;-3.37;100.00;99807.56;5013427;28;20561;-53
2022/12/13 08:56:36;;;;;;;2.80;2.60;;;;;;;-3.38;100.00;99811.00;5025844;28;20771;-52
2022/12/13 08:59:03;;;;;;;1.43;1.33;;;;;;;-3.39;100.00;99808.38;5012369;28;20477;-52
2022/12/13 09:01:30;;;;;;;4.13;1.47;;;;;;;-3.29;100.00;99818.09;5026219;28;20459;-53
2022/12/13 09:03:56;;;;;;;1.00;1.00;;;;;;;-3.25;100.00;99822.53;5020266;28;20453;-52
2022/12/13 09:06:22;;;;;;;3.40;0.80;;;;;;;-3.09;100.00;99813.28;5025857;28;20467;-53
2022/12/13 09:08:52;;;;;;;3.00;2.90;;;;;;;-3.04;100.00;99793.44;5012675;28;20480;-52
2022/12/13 09:11:18;;;;;;;1.27;1.27;;;;;;;-3.02;100.00;99794.31;5026290;28;20929;-54
2022/12/13 09:14:00;;;;;;;4.23;2.40;;;;;;;-2.84;100.00;99779.06;5031559;28;20491;-52
2022/12/13 09:16:29;;;;;;;2.73;2.53;;;;;;;-2.81;100.00;99789.50;5015297;28;20456;-52
2022/12/13 09:19:05;;;;;;;14.07;0.90;;;;;;;-2.66;100.00;99786.28;5022915;28;20478;-52
2022/12/13 09:21:51;;;;;;;1.27;0.93;;;;;;;-2.92;100.00;99788.44;5019508;28;21001;-52
2022/12/13 09:24:28;;;;;;;3.27;2.40;;;;;;;-2.96;100.00;99799.66;5032374;28;20443;-51
2022/12/13 09:27:02;;;;;;;2.40;2.30;;;;;;;-2.82;100.00;99795.56;5031706;28;20505;-53
2022/12/13 09:29:36;;;;;;;6.90;2.70;;;;;;;-2.98;100.00;99801.34;5031583;28;20529;-51
2022/12/13 09:32:02;;;;;;;1.80;1.80;;;;;;;-2.80;100.00;99793.00;5020504;28;20927;-52
2022/12/13 09:34:29;;;;;;;1.63;1.63;;;;;;;-2.86;100.00;99804.16;5017265;28;20598;-52
2022/12/13 09:36:57;;;;;;;9.73;3.17;;;;;;;-2.66;100.00;99808.81;5020360;28;20448;-51
2022/12/13 09:39:27;;;;;;;8.83;2.23;;;;;;;-2.84;100.00;99812.88;5017356;28;20483;-52
2022/12/13 09:41:56;;;;;;;2.83;2.63;;;;;;;-2.60;100.00;99808.94;5019158;28;20448;-52
2022/12/13 09:44:29;;;;;;;2.87;1.63;;;;;;;-2.71;100.00;99808.75;5028464;28;20444;-51
2022/12/13 09:47:21;;;;;;;1.40;1.30;;;;;;;-2.59;100.00;99801.16;5031635;28;20475;-52
2022/12/13 09:49:49;;;;;;;0.50;0.50;;;;;;;-2.59;100.00;99803.75;5019825;28;21011;-52
2022/12/13 09:52:22;;;;;;;0.90;0.90;;;;;;;-2.79;100.00;99800.81;5030117;28;20463;-51
2022/12/13 09:54:52;;;;;;;2.40;1.03;;;;;;;-2.70;100.00;99806.19;5018806;28;20484;-48
2022/12/13 09:57:23;;;;;;;2.30;2.20;;;;;;;-2.55;100.00;99794.28;5024605;28;20803;-49
2022/12/13 10:00:01;;;;;;;1.70;1.60;;;;;;;-2.40;100.00;99787.56;5026159;28;20580;-52
2022/12/13 10:02:30;;;;;;;7.43;1.50;;;;;;;-2.60;100.00;99793.34;5024691;28;20452;-52
2022/12/13 10:05:14;;;;;;;0.67;0.67;;;;;;;-2.66;100.00;99793.22;5028237;28;20452;-53
2022/12/13 10:07:51;;;;;;;0.50;0.50;;;;;;;-2.57;100.00;99780.38;5023989;28;20534;-51
2022/12/13 10:10:18;;;;;;;1.27;1.27;;;;;;;-2.62;100.00;99784.59;5017511;28;20467;-52
2022/12/13 10:13:02;;;;;;;9.67;4.37;;;;;;;-2.76;100.00;99766.16;5030264;28;20491;-51
2022/12/13 10:15:32;;;;;;;3.20;2.60;;;;;;;-2.67;100.00;99761.13;5019561;28;20549;-52
2022/12/13 10:17:58;;;;;;;1.27;1.17;;;;;;;-2.47;100.00;99764.94;5016336;28;20460;-52
2022/12/13 10:20:27;;;;;;;1.50;1.40;;;;;;;-2.51;100.00;99775.25;5020387;28;20453;-51
2022/12/13 10:22:54;;;;;;;3.17;1.63;;;;;;;-2.54;100.00;99767.41;5023177;28;20463;-52
2022/12/13 10:25:45;;;;;;;1.63;1.53;;;;;;;-2.62;100.00;99774.19;5022671;28;20539;-52
2022/12/13 10:28:19;;;;;;;1.80;1.33;;;;;;;-2.46;100.00;99758.00;5029813;28;20471;-51
2022/12/13 10:30:45;;;;;;;3.43;0.60;;;;;;;-2.47;100.00;99757.13;5030172;28;20459;-52
2022/12/13 10:33:22;;;;;;;3.13;0.77;;;;;;;-2.55;100.00;99757.84;5029239;28;20906;-52
2022/12/13 10:36:03;;;;;;;1.60;1.50;;;;;;;-2.40;100.00;99756.34;5013593;28;20514;-51
2022/12/13 10:38:34;;;;;;;0.50;0.50;;;;;;;-2.46;100.00;99764.06;5009338;28;20492;-49
2022/12/13 10:41:01;;;;;;;3.57;1.57;;;;;;;-2.41;100.00;99759.81;5014882;28;20447;-51
2022/12/13 10:43:31;;;;;;;1.80;1.70;;;;;;;-2.22;100.00;99754.84;5017825;28;20966;-51
2022/12/13 10:46:00;;;;;;;1.37;0.80;;;;;;;-2.11;100.00;99751.53;5025884;28;20447;-52
2022/12/13 10:48:34;;;;;;;6.43;1.73;;;;;;;-1.82;100.00;99756.25;5029711;28;20472;-51
2022/12/13 10:51:16;;;;;;;0.47;0.47;;;;;;;-1.95;100.00;99750.00;5027890;28;20447;-51
2022/12/13 10:53:50;;;;;;;0.93;0.93;;;;;;;-2.00;100.00;99750.81;5013645;28;20821;-52
2022/12/13 10:56:18;;;;;;;6.90;2.33;;;;;;;-1.80;100.00;99750.19;5019560;28;20459;-51
2022/12/13 10:59:07;;;;;;;9.23;2.93;;;;;;;-1.69;100.00;99746.84;5023236;28;20849;-52
2022/12/13 11:01:40;;;;;;;3.73;0.53;;;;;;;-1.81;100.00;99743.25;5025061;28;20474;-52
2022/12/13 11:04:24;;;;;;;0.30;0.30;;;;;;;-1.86;100.00;99741.44;5029917;28;20451;-51
2022/12/13 11:06:55;;;;;;;1.47;1.40;;;;;;;-1.87;100.00;99747.50;5016783;28;20451;-52
2022/12/13 11:09:28;;;;;;;1.77;1.67;;;;;;;-1.87;100.00;99740.56;5017941;28;20469;-52
2022/12/13 11:12:13;;;;;;;0.30;0.30;;;;;;;-1.90;100.00;99731.84;5017157;28;20455;-52
2022/12/13 11:14:51;;;;;;;5.37;2.93;;;;;;;-1.83;100.00;99733.66;5027365;28;20487;-52
2022/12/13 11:17:21;;;;;;;2.13;0.83;;;;;;;-1.53;100.00;99728.78;5010486;28;20450;-51
2022/12/13 11:19:51;;;;;;;0.50;0.50;;;;;;;-1.62;100.00;99736.53;5014408;28;21111;-52
2022/12/13 11:22:21;;;;;;;1.30;1.30;;;;;;;-1.55;100.00;99724.44;5017891;28;20455;-52
2022/12/13 11:24:51;;;;;;;0.60;0.37;;;;;;;-1.54;100.00;99718.38;5010058;28;20460;-52
2022/12/13 11:27:35;;;;;;;1.60;1.50;;;;;;;-1.29;100.00;99711.66;5023096;28;20451;-51
2022/12/13 11:30:34;;;;;;;5.90;0.83;;;;;;;-1.35;99.29;99714.22;5019330;28;20849;-52
2022/12/13 11:33:25;;;;;;;3.70;1.33;;;;;;;-1.24;99.19;99712.56;4998186;28;20466;-53
2022/12/13 11:36:10;;;;;;;2.87;1.07;;;;;;;-1.23;98.74;99699.59;5012531;28;20492;-51
2022/12/13 11:38:58;;;;;;;0.93;0.87;;;;;;;-1.25;98.18;99692.59;5013680;28;20942;-52
2022/12/13 11:41:48;;;;;;;0.93;0.60;;;;;;;-1.13;98.71;99692.69;5033734;28;20459;-51
2022/12/13 11:44:26;;;;;;;4.43;1.63;;;;;;;-1.28;98.38;99685.63;5020707;28;20452;-52